This is the latest recevied weather packets stored in our database for station/object VA6NA. If no packets are shown the sender has not sent any weather packets the latest 10 day(s).
| Time | Temp. | Humidity | Pressure | Rain* | Wind** | Luminosity | Snow |
|---|---|---|---|---|---|---|---|
| 1777836638 | 17.22° C | 40% | 1013 hPa | 0 mm | - | - | - |
| 1777834217 | 18.89° C | 39% | 1012.9 hPa | 0 mm | - | - | - |
| 1777831847 | 18.89° C | 38% | 1012.9 hPa | 0 mm | - | - | - |
| 1777829426 | 18.33° C | 40% | 1012.8 hPa | 0 mm | - | - | - |
| 1777825233 | 17.78° C | 46% | 1012.7 hPa | 0 mm | - | - | - |
| 1777824636 | 17.22° C | 48% | 1012.7 hPa | 0 mm | - | - | - |
| 1777821028 | 15.56° C | 51% | 1012.6 hPa | 0 mm | - | - | - |
| 1777820424 | 15.56° C | 51% | 1012.4 hPa | 0 mm | - | - | - |
| 1777815025 | 14.44° C | 53% | 1012 hPa | 0 mm | - | - | - |
| 1777812031 | 12.78° C | 54% | 1011.8 hPa | 0 mm | - | - | - |
| 1777810239 | 12.22° C | 54% | 1011.8 hPa | 0 mm | - | - | - |
| 1777807817 | 12.22° C | 54% | 1011.8 hPa | 0 mm | - | - | - |
| 1777805432 | 12.22° C | 53% | 1012 hPa | 0 mm | - | - | - |
| 1777799432 | 12.78° C | 51% | 1012.4 hPa | 0 mm | - | - | - |
| 1777798833 | 12.78° C | 52% | 1012.4 hPa | 0 mm | - | - | - |
| 1777795226 | 12.78° C | 53% | 1012.8 hPa | 0 mm | - | - | - |
| 1777794627 | 12.78° C | 51% | 1012.9 hPa | 0 mm | - | - | - |
| 1777789218 | 14.44° C | 47% | 1012.6 hPa | 0 mm | - | - | - |
| 1777786821 | 15° C | 47% | 1012.3 hPa | 0 mm | - | - | - |
| 1777785026 | 15° C | 48% | 1012.4 hPa | 0 mm | - | - | - |
| 1777778416 | 18.33° C | 37% | 1012.3 hPa | 0 mm | - | - | - |
| 1777777223 | 18.89° C | 36% | 1012.3 hPa | 0 mm | - | - | - |
| 1777774823 | 20.56° C | 34% | 1012.3 hPa | 0 mm | - | - | - |
| 1777774219 | 20.56° C | 34% | 1012.3 hPa | 0 mm | - | - | - |
| 1777764626 | 22.78° C | 35% | 1014.4 hPa | 0 mm | - | - | - |
* Rain latest hour (hover to see other rain measurements)
** Current wind speed in m/s (hover to see current wind gust speed)